createdAt,value
2022-11-03T00:01:17.692Z,1.75
2022-11-03T00:03:45.025Z,3.38
2022-11-03T00:06:11.759Z,2.42
2022-11-03T00:08:41.651Z,1.83
2022-11-03T00:11:11.133Z,1.92
2022-11-03T00:13:39.576Z,1.88
2022-11-03T00:16:07.125Z,2.30
2022-11-03T00:18:34.845Z,2.53
2022-11-03T00:21:03.304Z,1.80
2022-11-03T00:23:31.776Z,1.55
2022-11-03T00:28:35.541Z,2.05
2022-11-03T00:31:07.541Z,2.60
2022-11-03T00:33:34.801Z,2.42
2022-11-03T00:36:02.346Z,2.00
2022-11-03T00:38:31.133Z,1.40
2022-11-03T00:41:00.127Z,1.23
2022-11-03T00:43:29.846Z,1.88
2022-11-03T00:45:57.262Z,1.63
2022-11-03T00:48:24.392Z,1.95
2022-11-03T00:50:51.150Z,2.00
2022-11-03T00:53:18.509Z,1.50
2022-11-03T00:55:49.434Z,2.00
2022-11-03T00:58:16.158Z,2.10
2022-11-03T01:00:44.924Z,1.48
2022-11-03T01:03:11.734Z,2.05
2022-11-03T01:05:40.622Z,2.58
2022-11-03T01:08:07.980Z,2.10
2022-11-03T01:10:37.007Z,1.60
2022-11-03T01:15:33.868Z,1.52
2022-11-03T01:18:02.038Z,1.50
2022-11-03T01:20:28.770Z,2.20
2022-11-03T01:22:56.115Z,1.90
2022-11-03T01:25:22.840Z,2.47
2022-11-03T01:27:49.562Z,1.75
2022-11-03T01:30:17.019Z,1.80
2022-11-03T01:32:43.761Z,2.22
2022-11-03T01:35:11.833Z,2.03
2022-11-03T01:37:39.163Z,1.40
2022-11-03T01:40:07.237Z,1.88
2022-11-03T01:42:34.155Z,2.10
2022-11-03T01:45:01.495Z,2.20
2022-11-03T01:47:30.724Z,2.65
2022-11-03T01:50:02.291Z,2.95
2022-11-03T01:52:34.459Z,1.40
2022-11-03T01:55:04.779Z,1.85
2022-11-03T01:57:36.725Z,2.35
2022-11-03T02:00:05.096Z,1.80
2022-11-03T02:05:02.444Z,1.50
2022-11-03T02:07:36.336Z,2.22
2022-11-03T02:10:04.492Z,1.80
2022-11-03T02:12:33.213Z,1.60
2022-11-03T02:15:05.099Z,1.40
2022-11-03T02:17:34.013Z,1.88
2022-11-03T02:20:04.770Z,1.83
2022-11-03T02:22:59.238Z,1.73
2022-11-03T02:25:41.858Z,1.92
2022-11-03T02:28:09.847Z,1.98
2022-11-03T02:30:42.778Z,1.80
2022-11-03T02:33:20.387Z,1.83
2022-11-03T02:35:51.677Z,1.60
2022-11-03T02:38:28.546Z,1.73
2022-11-03T02:41:00.920Z,2.20
2022-11-03T02:43:29.077Z,1.77
2022-11-03T02:45:56.185Z,1.63
2022-11-03T02:48:23.590Z,1.80
2022-11-03T02:50:50.994Z,2.05
2022-11-03T02:53:17.772Z,1.67
2022-11-03T02:55:52.634Z,1.80
2022-11-03T02:58:27.168Z,1.58
2022-11-03T03:01:00.202Z,1.60
2022-11-03T03:03:32.378Z,2.45
2022-11-03T03:06:02.493Z,1.65
2022-11-03T03:08:30.975Z,2.05
2022-11-03T03:11:03.101Z,2.25
2022-11-03T03:13:32.564Z,2.10
2022-11-03T03:16:08.945Z,1.90
2022-11-03T03:18:44.022Z,1.60
2022-11-03T03:21:14.920Z,1.73
2022-11-03T03:23:46.851Z,2.28
2022-11-03T03:26:20.652Z,1.40
2022-11-03T03:28:55.562Z,1.98
2022-11-03T03:31:25.840Z,2.08
2022-11-03T03:34:04.567Z,1.73
2022-11-03T03:36:34.823Z,1.95
2022-11-03T03:39:06.855Z,2.55
2022-11-03T03:41:36.018Z,2.10
2022-11-03T03:44:08.297Z,2.00
2022-11-03T03:46:38.854Z,1.60
2022-11-03T03:49:06.769Z,1.70
2022-11-03T03:51:34.575Z,1.50
2022-11-03T03:54:01.384Z,1.58
2022-11-03T03:56:32.869Z,1.60
2022-11-03T03:58:59.661Z,1.80
2022-11-03T04:01:27.798Z,1.80
2022-11-03T04:03:55.228Z,1.60
2022-11-03T04:06:21.987Z,1.30
2022-11-03T04:08:48.753Z,1.83
2022-11-03T04:11:16.166Z,1.88
2022-11-03T04:13:42.897Z,1.73
2022-11-03T04:16:09.874Z,2.00
2022-11-03T04:18:38.535Z,1.80
2022-11-03T04:21:06.525Z,1.67
2022-11-03T04:23:33.268Z,1.73
2022-11-03T04:26:00.970Z,2.50
2022-11-03T04:28:28.018Z,2.03
2022-11-03T04:30:58.769Z,2.13
2022-11-03T04:33:28.822Z,1.65
2022-11-03T04:38:26.704Z,1.70
2022-11-03T04:40:55.910Z,2.10
2022-11-03T04:43:29.256Z,1.95
2022-11-03T04:45:56.857Z,1.77
2022-11-03T04:48:25.448Z,2.58
2022-11-03T04:50:54.950Z,1.83
2022-11-03T04:53:24.382Z,1.60
2022-11-03T04:55:53.929Z,1.83
2022-11-03T04:58:23.643Z,2.63
2022-11-03T05:00:53.133Z,1.60
2022-11-03T05:05:49.307Z,1.90
2022-11-03T05:08:18.456Z,1.63
2022-11-03T05:10:47.488Z,2.13
2022-11-03T05:15:45.956Z,1.80
2022-11-03T05:18:17.632Z,1.80
2022-11-03T05:20:49.018Z,2.17
2022-11-03T05:23:15.771Z,2.00
2022-11-03T05:25:44.477Z,1.65
2022-11-03T05:28:25.779Z,1.63
2022-11-03T05:30:53.850Z,1.50
2022-11-03T05:33:27.921Z,1.70
2022-11-03T05:35:57.915Z,2.45
2022-11-03T05:38:25.066Z,1.80
2022-11-03T05:40:53.765Z,2.88
2022-11-03T05:43:22.648Z,1.55
2022-11-03T05:45:55.461Z,1.83
2022-11-03T05:48:30.533Z,1.88
2022-11-03T05:50:57.404Z,1.60
2022-11-03T05:53:32.010Z,2.05
2022-11-03T05:56:02.020Z,1.88
2022-11-03T05:58:34.875Z,1.80
2022-11-03T06:01:06.685Z,1.95
2022-11-03T06:03:36.305Z,2.17
2022-11-03T06:08:40.257Z,1.63
2022-11-03T06:11:19.706Z,1.60
2022-11-03T06:13:48.404Z,2.92
2022-11-03T06:16:36.506Z,1.93
2022-11-03T06:19:15.844Z,1.95
2022-11-03T06:21:44.776Z,1.60
2022-11-03T06:24:15.434Z,2.30
2022-11-03T06:26:44.320Z,2.05
2022-11-03T06:29:14.923Z,2.65
2022-11-03T06:31:44.681Z,2.10
2022-11-03T06:34:26.151Z,1.70
2022-11-03T06:36:53.523Z,1.83
2022-11-03T06:39:22.951Z,2.00
2022-11-03T06:41:50.746Z,2.50
2022-11-03T06:44:24.372Z,1.95
2022-11-03T06:46:51.761Z,1.75
2022-11-03T06:49:28.105Z,2.50
2022-11-03T06:51:55.099Z,2.22
2022-11-03T06:54:22.595Z,2.83
2022-11-03T06:56:49.373Z,2.00
2022-11-03T06:59:18.141Z,1.80
2022-11-03T07:01:53.917Z,1.92
2022-11-03T07:04:22.540Z,2.13
2022-11-03T07:06:53.346Z,1.80
2022-11-03T07:09:24.105Z,2.05
2022-11-03T07:11:53.326Z,1.77
2022-11-03T07:14:22.741Z,1.98
2022-11-03T07:16:54.290Z,2.33
2022-11-03T07:19:26.258Z,2.45
2022-11-03T07:21:54.799Z,2.22
2022-11-03T07:24:24.346Z,1.80
2022-11-03T07:29:24.789Z,1.92
2022-11-03T07:31:55.122Z,2.42
2022-11-03T07:34:25.077Z,2.05
2022-11-03T07:36:55.841Z,2.22
2022-11-03T07:39:23.363Z,2.30
2022-11-03T07:41:50.832Z,2.38
2022-11-03T07:44:20.097Z,2.10
2022-11-03T07:46:47.233Z,2.30
2022-11-03T07:49:25.053Z,1.70
2022-11-03T07:51:52.716Z,2.67
2022-11-03T07:54:22.148Z,2.20
2022-11-03T07:56:52.599Z,2.40
2022-11-03T08:01:55.595Z,3.30
2022-11-03T08:04:26.249Z,2.38
2022-11-03T08:06:53.269Z,2.22
2022-11-03T08:09:20.634Z,3.10
2022-11-03T08:11:48.619Z,3.45
2022-11-03T08:14:17.595Z,2.00
2022-11-03T08:19:11.666Z,2.35
2022-11-03T08:21:39.785Z,2.85
2022-11-03T08:24:06.782Z,2.40
2022-11-03T08:26:34.150Z,2.25
2022-11-03T08:29:00.940Z,2.70
2022-11-03T08:31:27.653Z,2.15
2022-11-03T08:33:54.984Z,2.97
2022-11-03T08:36:21.691Z,2.20
2022-11-03T08:38:49.776Z,2.05
2022-11-03T08:41:17.101Z,2.10
2022-11-03T08:43:43.832Z,2.70
2022-11-03T08:46:17.260Z,2.05
2022-11-03T08:48:45.938Z,2.00
2022-11-03T08:51:13.835Z,3.33
2022-11-03T08:53:41.355Z,1.77
2022-11-03T08:56:12.738Z,2.38
2022-11-03T08:58:42.090Z,2.50
2022-11-03T09:01:09.436Z,2.13
2022-11-03T09:03:36.227Z,2.00
2022-11-03T09:06:03.145Z,2.20
2022-11-03T09:11:18.659Z,2.50
2022-11-03T09:13:46.046Z,2.75
2022-11-03T09:16:12.797Z,2.40
2022-11-03T09:18:39.536Z,3.00
2022-11-03T09:21:06.916Z,2.47
2022-11-03T09:23:33.679Z,2.95
2022-11-03T09:26:00.572Z,2.33
2022-11-03T09:28:30.927Z,2.78
2022-11-03T09:30:57.686Z,2.05
2022-11-03T09:33:24.481Z,2.50
2022-11-03T09:35:51.822Z,2.42
2022-11-03T09:38:18.582Z,1.95
2022-11-03T09:40:45.433Z,2.10
2022-11-03T09:43:22.057Z,2.75
2022-11-03T09:45:50.308Z,2.45
2022-11-03T09:48:17.065Z,2.83
2022-11-03T09:50:45.030Z,2.65
2022-11-03T09:53:12.657Z,2.00
2022-11-03T09:55:39.734Z,2.33
2022-11-03T09:58:12.859Z,2.25
2022-11-03T10:00:39.723Z,1.90
2022-11-03T10:03:11.379Z,2.97
2022-11-03T10:05:39.771Z,2.15
2022-11-03T10:08:13.562Z,2.97
2022-11-03T10:10:42.066Z,1.75
2022-11-03T10:13:17.677Z,2.38
2022-11-03T10:15:44.427Z,2.17
2022-11-03T10:18:13.890Z,1.90
2022-11-03T10:20:40.866Z,2.17
2022-11-03T10:23:09.155Z,2.58
2022-11-03T10:25:38.711Z,2.70
2022-11-03T10:28:16.403Z,2.60
2022-11-03T10:31:10.620Z,2.00
2022-11-03T10:33:52.277Z,2.72
2022-11-03T10:36:24.823Z,2.30
2022-11-03T10:38:51.671Z,1.77
2022-11-03T10:41:20.519Z,2.42
2022-11-03T10:44:01.214Z,1.88
2022-11-03T10:46:48.997Z,2.13
2022-11-03T10:49:18.632Z,2.40
2022-11-03T10:51:49.433Z,2.30
2022-11-03T10:54:18.535Z,1.98
2022-11-03T10:56:47.070Z,2.38
2022-11-03T10:59:17.855Z,2.30
2022-11-03T11:01:44.849Z,2.30
2022-11-03T11:04:15.074Z,2.67
2022-11-03T11:06:43.429Z,2.33
2022-11-03T11:09:12.885Z,2.20
2022-11-03T11:11:57.933Z,2.55
2022-11-03T11:14:36.407Z,1.80
2022-11-03T11:17:04.819Z,2.00
2022-11-03T11:20:10.235Z,1.80
2022-11-03T11:22:38.936Z,2.00
2022-11-03T11:25:06.111Z,1.80
2022-11-03T11:27:47.776Z,2.45
2022-11-03T11:30:45.005Z,2.00
2022-11-03T11:33:23.092Z,2.00
2022-11-03T11:36:19.546Z,1.85
2022-11-03T11:38:55.863Z,1.85
2022-11-03T11:41:56.433Z,1.80
2022-11-03T11:44:56.651Z,1.77
2022-11-03T11:47:45.089Z,2.28
2022-11-03T11:50:28.919Z,1.30
2022-11-03T11:53:02.657Z,1.90
2022-11-03T11:55:39.404Z,1.70
2022-11-03T11:58:16.700Z,1.50
2022-11-03T12:00:56.014Z,1.45
2022-11-03T12:03:30.878Z,1.20
2022-11-03T12:05:57.721Z,1.90
2022-11-03T12:08:28.101Z,1.60
2022-11-03T12:10:57.786Z,2.10
2022-11-03T12:13:36.399Z,1.80
2022-11-03T12:16:03.303Z,1.80
2022-11-03T12:18:38.886Z,1.40
2022-11-03T12:21:09.014Z,1.40
2022-11-03T12:23:43.519Z,1.75
2022-11-03T12:26:38.749Z,1.80
2022-11-03T12:29:06.159Z,1.88
2022-11-03T12:31:35.965Z,1.70
2022-11-03T12:34:03.941Z,1.60
2022-11-03T12:36:31.322Z,2.50
2022-11-03T12:38:58.048Z,2.08
2022-11-03T12:41:26.154Z,1.65
2022-11-03T12:43:53.901Z,2.10
2022-11-03T12:46:21.458Z,1.60
2022-11-03T12:48:48.681Z,2.17
2022-11-03T12:51:17.517Z,1.90
2022-11-03T12:53:44.572Z,1.15
2022-11-03T12:56:12.047Z,1.65
2022-11-03T12:58:40.904Z,1.63
2022-11-03T13:01:08.616Z,1.70
2022-11-03T13:03:36.334Z,1.65
2022-11-03T13:06:05.220Z,1.88
2022-11-03T13:08:32.376Z,1.65
2022-11-03T13:10:59.783Z,2.05
2022-11-03T13:13:27.293Z,2.33
2022-11-03T13:15:55.510Z,1.77
2022-11-03T13:18:22.620Z,1.70
2022-11-03T13:20:50.006Z,2.05
2022-11-03T13:23:20.267Z,1.95
2022-11-03T13:25:50.578Z,2.20
2022-11-03T13:28:17.377Z,1.85
2022-11-03T13:30:44.122Z,2.17
2022-11-03T13:33:12.829Z,1.85
2022-11-03T13:35:39.579Z,1.70
2022-11-03T13:38:06.345Z,2.40
2022-11-03T13:43:20.485Z,2.03
2022-11-03T13:45:47.829Z,2.25
2022-11-03T13:56:21.655Z,2.42
2022-11-03T14:01:36.947Z,2.13
2022-11-03T14:06:53.137Z,1.85
2022-11-03T14:09:19.889Z,1.90
2022-11-03T14:11:46.601Z,2.00
2022-11-03T14:14:14.036Z,2.47
2022-11-03T14:16:40.804Z,2.33
2022-11-03T14:19:08.893Z,2.08
2022-11-03T14:21:36.302Z,2.00
2022-11-03T14:24:04.576Z,1.95
2022-11-03T14:26:46.139Z,2.30
2022-11-03T14:29:13.465Z,2.20
2022-11-03T14:31:40.190Z,2.28
2022-11-03T14:34:08.416Z,2.05
2022-11-03T14:36:36.255Z,1.98
2022-11-03T14:39:03.184Z,2.50
2022-11-03T14:41:29.936Z,2.10
2022-11-03T14:43:57.256Z,2.30
2022-11-03T14:46:24.061Z,1.90
2022-11-03T14:48:50.878Z,1.98
2022-11-03T14:51:19.635Z,1.95
2022-11-03T14:53:46.390Z,1.52
2022-11-03T14:56:13.115Z,2.05
2022-11-03T14:58:40.498Z,2.13
2022-11-03T15:01:07.272Z,2.20
2022-11-03T15:03:34.087Z,2.10
2022-11-03T15:06:01.414Z,2.28
2022-11-03T15:08:29.616Z,1.98
2022-11-03T15:10:56.349Z,3.53
2022-11-03T15:13:23.734Z,2.20
2022-11-03T15:15:50.522Z,1.98
2022-11-03T15:18:17.305Z,2.60
2022-11-03T15:20:44.711Z,2.03
2022-11-03T15:26:00.208Z,2.33
2022-11-03T15:28:27.075Z,1.95
2022-11-03T15:30:53.851Z,2.17
2022-11-03T15:33:21.276Z,2.88
2022-11-03T15:35:48.143Z,2.95
2022-11-03T15:38:15.180Z,2.20
2022-11-03T15:40:42.576Z,2.25
2022-11-03T15:43:10.721Z,2.33
2022-11-03T15:45:37.598Z,2.30
2022-11-03T15:48:05.214Z,2.42
2022-11-03T15:50:32.231Z,3.05
2022-11-03T15:52:59.174Z,2.58
2022-11-03T15:55:35.720Z,2.22
2022-11-03T15:58:02.499Z,3.03
2022-11-03T16:00:31.197Z,2.40
2022-11-03T16:02:57.988Z,2.30
2022-11-03T16:05:25.454Z,2.72
2022-11-03T16:07:52.916Z,3.47
2022-11-03T16:10:19.705Z,2.30
2022-11-03T16:12:46.474Z,2.17
2022-11-03T16:15:13.861Z,2.25
2022-11-03T16:17:45.507Z,2.25
2022-11-03T16:20:15.620Z,2.30
2022-11-03T16:22:42.404Z,2.53
2022-11-03T16:25:12.790Z,2.40
2022-11-03T16:27:42.328Z,2.50
2022-11-03T16:30:10.651Z,2.65
2022-11-03T16:32:40.021Z,2.78
2022-11-03T16:35:09.284Z,2.33
2022-11-03T16:37:36.093Z,2.67
2022-11-03T16:40:03.445Z,2.50
2022-11-03T16:42:30.779Z,2.85
2022-11-03T16:44:57.501Z,2.78
2022-11-03T16:47:24.316Z,2.50
2022-11-03T16:49:54.105Z,3.00
2022-11-03T16:52:24.842Z,2.47
2022-11-03T16:54:52.153Z,3.28
2022-11-03T16:57:18.921Z,3.85
2022-11-03T16:59:45.633Z,4.32
2022-11-03T17:02:16.308Z,3.05
2022-11-03T17:04:43.475Z,3.65
2022-11-03T17:07:10.188Z,2.80
2022-11-03T17:09:38.849Z,4.03
2022-11-03T17:12:05.908Z,4.73
2022-11-03T17:14:32.661Z,4.38
2022-11-03T17:17:01.612Z,4.05
2022-11-03T17:19:28.345Z,4.07
2022-11-03T17:21:55.133Z,3.45
2022-11-03T17:24:22.461Z,4.03
2022-11-03T17:26:55.845Z,3.60
2022-11-03T17:29:28.662Z,3.78
2022-11-03T17:31:55.457Z,3.75
2022-11-03T17:34:24.663Z,4.93
2022-11-03T17:36:53.018Z,4.22
2022-11-03T17:41:54.443Z,4.45
2022-11-03T17:44:21.209Z,4.80
2022-11-03T17:46:47.945Z,4.43
2022-11-03T17:49:15.271Z,4.40
2022-11-03T17:51:42.601Z,4.40
2022-11-03T17:54:15.721Z,4.72
2022-11-03T17:56:43.380Z,4.78
2022-11-03T17:59:15.383Z,4.43
2022-11-03T18:01:42.714Z,5.25
2022-11-03T18:04:12.053Z,3.53
2022-11-03T18:06:38.946Z,4.38
2022-11-03T18:09:05.709Z,4.93
2022-11-03T18:11:34.646Z,4.95
2022-11-03T18:14:01.989Z,5.55
2022-11-03T18:16:31.269Z,4.07
2022-11-03T18:19:00.742Z,4.53
2022-11-03T18:21:29.886Z,4.93
2022-11-03T18:23:56.736Z,5.18
2022-11-03T18:26:27.293Z,5.50
2022-11-03T18:28:54.254Z,5.38
2022-11-03T18:31:32.434Z,6.13
2022-11-03T18:34:05.095Z,5.32
2022-11-03T18:36:32.773Z,5.72
2022-11-03T18:39:00.162Z,6.05
2022-11-03T18:41:30.977Z,4.93
2022-11-03T18:43:57.725Z,6.22
2022-11-03T18:46:24.473Z,5.43
2022-11-03T18:48:54.847Z,5.28
2022-11-03T18:51:23.060Z,5.18
2022-11-03T18:53:49.963Z,5.25
2022-11-03T18:56:19.280Z,5.95
2022-11-03T18:58:50.314Z,4.78
2022-11-03T19:01:21.750Z,4.30
2022-11-03T19:03:49.476Z,4.97
2022-11-03T19:06:19.385Z,4.90
2022-11-03T19:08:48.566Z,5.60
2022-11-03T19:11:15.356Z,5.10
2022-11-03T19:13:43.814Z,5.65
2022-11-03T19:16:15.565Z,5.50
2022-11-03T19:18:43.817Z,4.90
2022-11-03T19:21:24.716Z,5.55
2022-11-03T19:23:58.044Z,4.97
2022-11-03T19:26:30.728Z,4.50
2022-11-03T19:29:00.126Z,5.30
2022-11-03T19:31:36.991Z,6.40
2022-11-03T19:34:05.594Z,5.50
2022-11-03T19:36:33.050Z,5.28
2022-11-03T19:39:02.148Z,5.40
2022-11-03T19:41:28.922Z,5.10
2022-11-03T19:43:56.298Z,6.40
2022-11-03T19:46:25.843Z,5.68
2022-11-03T19:48:56.103Z,5.70
2022-11-03T19:51:23.876Z,5.78
2022-11-03T19:53:50.643Z,5.97
2022-11-03T19:56:21.680Z,7.25
2022-11-03T20:01:17.187Z,6.00
2022-11-03T20:03:44.014Z,6.30
2022-11-03T20:06:16.687Z,6.35
2022-11-03T20:08:45.875Z,7.10
2022-11-03T20:11:13.247Z,6.15
2022-11-03T20:13:43.113Z,7.20
2022-11-03T20:16:12.275Z,6.72
2022-11-03T20:18:40.017Z,6.32
2022-11-03T20:21:07.210Z,5.88
2022-11-03T20:23:35.575Z,6.05
2022-11-03T20:28:30.898Z,5.10
2022-11-03T20:30:59.024Z,6.10
2022-11-03T20:33:32.482Z,6.05
2022-11-03T20:35:59.298Z,6.68
2022-11-03T20:38:27.788Z,7.70
2022-11-03T20:40:55.818Z,6.65
2022-11-03T20:43:25.766Z,7.90
2022-11-03T20:45:53.551Z,6.95
2022-11-03T20:48:21.779Z,6.82
2022-11-03T20:50:51.252Z,6.60
2022-11-03T20:53:20.616Z,5.55
2022-11-03T20:55:51.178Z,6.13
2022-11-03T20:58:19.144Z,6.63
2022-11-03T21:00:51.566Z,7.05
2022-11-03T21:03:37.895Z,5.95
2022-11-03T21:06:12.027Z,7.00
2022-11-03T21:08:39.670Z,8.63
2022-11-03T21:11:15.008Z,7.90
2022-11-03T21:13:42.381Z,8.35
2022-11-03T21:16:24.080Z,8.70
2022-11-03T21:18:53.402Z,8.27
2022-11-03T21:21:21.420Z,8.73
2022-11-03T21:23:48.294Z,7.93
2022-11-03T21:26:17.551Z,7.95
2022-11-03T21:28:44.409Z,6.53
2022-11-03T21:31:13.137Z,7.13
2022-11-03T21:33:40.562Z,6.15
2022-11-03T21:36:09.456Z,4.85
2022-11-03T21:41:07.570Z,6.53
2022-11-03T21:43:34.399Z,7.40
2022-11-03T21:46:09.852Z,7.45
2022-11-03T21:48:38.298Z,6.65
2022-11-03T21:51:05.454Z,7.03
2022-11-03T21:53:33.532Z,6.15
2022-11-03T21:56:00.989Z,7.53
2022-11-03T21:58:27.768Z,7.22
2022-11-03T22:00:54.694Z,5.88
2022-11-03T22:03:22.052Z,7.47
2022-11-03T22:05:48.986Z,6.03
2022-11-03T22:08:16.125Z,3.38
2022-11-03T22:10:44.859Z,3.97
2022-11-03T22:13:12.031Z,4.67
2022-11-03T22:15:41.738Z,4.20
2022-11-03T22:18:09.464Z,2.90
2022-11-03T22:20:36.775Z,2.40
2022-11-03T22:23:03.522Z,2.58
2022-11-03T22:25:30.865Z,2.28
2022-11-03T22:27:58.969Z,1.75
2022-11-03T22:30:25.748Z,1.80
2022-11-03T22:32:54.841Z,1.42
2022-11-03T22:35:23.037Z,1.40
2022-11-03T22:38:01.433Z,2.03
2022-11-03T22:40:28.877Z,1.30
2022-11-03T22:42:59.260Z,1.20
2022-11-03T22:45:27.423Z,1.25
2022-11-03T22:47:54.779Z,1.48
2022-11-03T22:50:21.508Z,1.77
2022-11-03T22:52:48.250Z,1.30
2022-11-03T22:55:15.637Z,1.30
2022-11-03T22:57:42.360Z,1.48
2022-11-03T23:00:10.693Z,1.70
2022-11-03T23:05:06.858Z,2.08
2022-11-03T23:07:40.833Z,2.80
2022-11-03T23:10:09.344Z,2.90
2022-11-03T23:12:36.125Z,2.67
2022-11-03T23:15:02.994Z,3.28
2022-11-03T23:17:30.477Z,3.35
2022-11-03T23:19:58.563Z,2.88
2022-11-03T23:22:25.320Z,2.93
2022-11-03T23:24:52.659Z,4.07
2022-11-03T23:27:19.409Z,4.13
2022-11-03T23:29:46.144Z,3.58
2022-11-03T23:32:13.815Z,4.45
2022-11-03T23:34:40.621Z,5.28
2022-11-03T23:37:08.724Z,4.70
2022-11-03T23:39:39.052Z,5.53
2022-11-03T23:42:06.271Z,5.95
2022-11-03T23:44:33.003Z,6.72
2022-11-03T23:47:00.333Z,6.90
2022-11-03T23:49:27.136Z,6.15
2022-11-03T23:51:53.912Z,5.15
2022-11-03T23:54:22.644Z,6.63
2022-11-03T23:56:49.397Z,6.37
2022-11-03T23:59:16.770Z,7.63
